sensor_id;sensor_type;location;lat;lon;timestamp;P1;durP1;ratioP1;P2;durP2;ratioP2
27580;SDS011;63557;52.302;7.964;2023-12-07T00:01:32;80.40;;;38.05;;
27580;SDS011;63557;52.302;7.964;2023-12-07T00:06:34;74.30;;;37.35;;
27580;SDS011;63557;52.302;7.964;2023-12-07T00:11:34;80.05;;;36.75;;
27580;SDS011;63557;52.302;7.964;2023-12-07T00:16:35;76.80;;;38.10;;
27580;SDS011;63557;52.302;7.964;2023-12-07T00:21:35;72.40;;;36.25;;
27580;SDS011;63557;52.302;7.964;2023-12-07T00:26:36;83.57;;;37.80;;
27580;SDS011;63557;52.302;7.964;2023-12-07T00:31:38;76.65;;;37.65;;
27580;SDS011;63557;52.302;7.964;2023-12-07T00:36:38;69.90;;;35.03;;
27580;SDS011;63557;52.302;7.964;2023-12-07T00:41:40;72.85;;;37.13;;
27580;SDS011;63557;52.302;7.964;2023-12-07T00:46:41;74.32;;;37.95;;
27580;SDS011;63557;52.302;7.964;2023-12-07T00:51:41;70.07;;;37.20;;
27580;SDS011;63557;52.302;7.964;2023-12-07T00:56:42;69.68;;;35.30;;
27580;SDS011;63557;52.302;7.964;2023-12-07T01:01:42;66.37;;;35.60;;
27580;SDS011;63557;52.302;7.964;2023-12-07T01:06:42;66.93;;;35.10;;
27580;SDS011;63557;52.302;7.964;2023-12-07T01:11:43;67.75;;;36.13;;
27580;SDS011;63557;52.302;7.964;2023-12-07T01:16:43;72.38;;;33.88;;
27580;SDS011;63557;52.302;7.964;2023-12-07T01:21:44;71.40;;;35.85;;
27580;SDS011;63557;52.302;7.964;2023-12-07T01:26:45;68.57;;;33.75;;
27580;SDS011;63557;52.302;7.964;2023-12-07T01:31:45;75.27;;;36.13;;
27580;SDS011;63557;52.302;7.964;2023-12-07T01:36:46;69.22;;;36.67;;
27580;SDS011;63557;52.302;7.964;2023-12-07T01:41:46;67.90;;;34.72;;
27580;SDS011;63557;52.302;7.964;2023-12-07T01:46:46;68.90;;;34.90;;
27580;SDS011;63557;52.302;7.964;2023-12-07T01:51:47;67.70;;;33.67;;
27580;SDS011;63557;52.302;7.964;2023-12-07T01:56:47;62.80;;;32.95;;
27580;SDS011;63557;52.302;7.964;2023-12-07T02:01:48;66.70;;;34.05;;
27580;SDS011;63557;52.302;7.964;2023-12-07T02:06:48;63.22;;;32.60;;
27580;SDS011;63557;52.302;7.964;2023-12-07T02:11:48;68.35;;;34.05;;
27580;SDS011;63557;52.302;7.964;2023-12-07T02:16:51;63.30;;;34.10;;
27580;SDS011;63557;52.302;7.964;2023-12-07T02:21:54;69.22;;;33.33;;
27580;SDS011;63557;52.302;7.964;2023-12-07T02:26:56;67.75;;;34.63;;
27580;SDS011;63557;52.302;7.964;2023-12-07T02:31:56;62.47;;;32.75;;
27580;SDS011;63557;52.302;7.964;2023-12-07T02:36:57;59.65;;;33.72;;
27580;SDS011;63557;52.302;7.964;2023-12-07T02:41:58;67.68;;;32.47;;
27580;SDS011;63557;52.302;7.964;2023-12-07T02:47:00;62.40;;;32.28;;
27580;SDS011;63557;52.302;7.964;2023-12-07T02:52:01;67.05;;;32.45;;
27580;SDS011;63557;52.302;7.964;2023-12-07T02:57:01;63.63;;;32.08;;
27580;SDS011;63557;52.302;7.964;2023-12-07T03:02:02;60.45;;;30.48;;
27580;SDS011;63557;52.302;7.964;2023-12-07T03:07:02;59.67;;;30.30;;
27580;SDS011;63557;52.302;7.964;2023-12-07T03:12:03;60.00;;;31.63;;
27580;SDS011;63557;52.302;7.964;2023-12-07T03:17:03;63.22;;;30.17;;
27580;SDS011;63557;52.302;7.964;2023-12-07T03:22:04;72.38;;;33.88;;
27580;SDS011;63557;52.302;7.964;2023-12-07T03:27:06;63.75;;;31.90;;
27580;SDS011;63557;52.302;7.964;2023-12-07T03:32:07;58.20;;;29.60;;
27580;SDS011;63557;52.302;7.964;2023-12-07T03:37:07;67.23;;;32.43;;
27580;SDS011;63557;52.302;7.964;2023-12-07T03:42:08;65.97;;;32.15;;
27580;SDS011;63557;52.302;7.964;2023-12-07T03:47:08;72.72;;;33.80;;
27580;SDS011;63557;52.302;7.964;2023-12-07T03:52:09;62.57;;;31.80;;
27580;SDS011;63557;52.302;7.964;2023-12-07T03:57:09;65.40;;;32.00;;
27580;SDS011;63557;52.302;7.964;2023-12-07T04:02:09;66.30;;;32.17;;
27580;SDS011;63557;52.302;7.964;2023-12-07T04:07:10;64.38;;;31.80;;
27580;SDS011;63557;52.302;7.964;2023-12-07T04:12:10;66.63;;;32.72;;
27580;SDS011;63557;52.302;7.964;2023-12-07T04:17:11;71.18;;;32.10;;
27580;SDS011;63557;52.302;7.964;2023-12-07T04:22:11;65.88;;;32.70;;
27580;SDS011;63557;52.302;7.964;2023-12-07T04:27:12;62.05;;;30.33;;
27580;SDS011;63557;52.302;7.964;2023-12-07T04:32:12;65.78;;;30.73;;
27580;SDS011;63557;52.302;7.964;2023-12-07T04:37:12;71.33;;;33.10;;
27580;SDS011;63557;52.302;7.964;2023-12-07T04:42:13;68.40;;;33.47;;
27580;SDS011;63557;52.302;7.964;2023-12-07T04:47:13;68.65;;;33.28;;
27580;SDS011;63557;52.302;7.964;2023-12-07T04:52:14;75.68;;;36.22;;
27580;SDS011;63557;52.302;7.964;2023-12-07T04:57:14;73.53;;;35.13;;
27580;SDS011;63557;52.302;7.964;2023-12-07T05:02:15;72.95;;;35.97;;
27580;SDS011;63557;52.302;7.964;2023-12-07T05:07:15;70.88;;;36.92;;
27580;SDS011;63557;52.302;7.964;2023-12-07T05:12:16;80.32;;;38.42;;
27580;SDS011;63557;52.302;7.964;2023-12-07T05:17:16;79.97;;;37.88;;
27580;SDS011;63557;52.302;7.964;2023-12-07T05:22:17;77.40;;;37.53;;
27580;SDS011;63557;52.302;7.964;2023-12-07T05:27:17;79.00;;;39.58;;
27580;SDS011;63557;52.302;7.964;2023-12-07T05:32:18;82.30;;;39.47;;
27580;SDS011;63557;52.302;7.964;2023-12-07T05:37:18;101.70;;;42.97;;
27580;SDS011;63557;52.302;7.964;2023-12-07T05:42:18;84.95;;;41.80;;
27580;SDS011;63557;52.302;7.964;2023-12-07T05:47:20;100.57;;;50.20;;
27580;SDS011;63557;52.302;7.964;2023-12-07T05:52:20;94.15;;;44.15;;
27580;SDS011;63557;52.302;7.964;2023-12-07T05:57:21;98.43;;;46.27;;
27580;SDS011;63557;52.302;7.964;2023-12-07T06:02:21;96.78;;;45.10;;
27580;SDS011;63557;52.302;7.964;2023-12-07T06:07:22;98.40;;;47.60;;
27580;SDS011;63557;52.302;7.964;2023-12-07T06:12:22;109.03;;;49.30;;
27580;SDS011;63557;52.302;7.964;2023-12-07T06:17:22;100.93;;;48.42;;
27580;SDS011;63557;52.302;7.964;2023-12-07T06:22:23;112.30;;;50.85;;
27580;SDS011;63557;52.302;7.964;2023-12-07T06:27:23;104.50;;;49.30;;
27580;SDS011;63557;52.302;7.964;2023-12-07T06:32:24;107.35;;;48.95;;
27580;SDS011;63557;52.302;7.964;2023-12-07T06:37:24;116.00;;;50.20;;
27580;SDS011;63557;52.302;7.964;2023-12-07T06:42:25;107.38;;;51.20;;
27580;SDS011;63557;52.302;7.964;2023-12-07T06:47:26;113.95;;;50.70;;
27580;SDS011;63557;52.302;7.964;2023-12-07T06:52:26;107.93;;;50.17;;
27580;SDS011;63557;52.302;7.964;2023-12-07T06:57:26;117.13;;;49.38;;
27580;SDS011;63557;52.302;7.964;2023-12-07T07:02:27;108.70;;;49.13;;
27580;SDS011;63557;52.302;7.964;2023-12-07T07:07:28;95.63;;;42.97;;
27580;SDS011;63557;52.302;7.964;2023-12-07T07:12:31;112.20;;;49.83;;
27580;SDS011;63557;52.302;7.964;2023-12-07T07:17:31;107.50;;;48.78;;
27580;SDS011;63557;52.302;7.964;2023-12-07T07:22:33;109.28;;;49.85;;
27580;SDS011;63557;52.302;7.964;2023-12-07T07:27:34;102.05;;;48.25;;
27580;SDS011;63557;52.302;7.964;2023-12-07T07:32:34;112.53;;;49.50;;
27580;SDS011;63557;52.302;7.964;2023-12-07T07:37:35;98.30;;;45.27;;
27580;SDS011;63557;52.302;7.964;2023-12-07T07:42:35;101.80;;;46.40;;
27580;SDS011;63557;52.302;7.964;2023-12-07T07:47:35;108.55;;;48.83;;
27580;SDS011;63557;52.302;7.964;2023-12-07T07:52:36;107.53;;;47.33;;
27580;SDS011;63557;52.302;7.964;2023-12-07T07:57:36;107.72;;;46.22;;
27580;SDS011;63557;52.302;7.964;2023-12-07T08:02:36;106.30;;;47.63;;
27580;SDS011;63557;52.302;7.964;2023-12-07T08:07:37;108.70;;;48.03;;
27580;SDS011;63557;52.302;7.964;2023-12-07T08:12:39;114.97;;;48.17;;
27580;SDS011;63557;52.302;7.964;2023-12-07T08:17:39;108.72;;;44.15;;
27580;SDS011;63557;52.302;7.964;2023-12-07T08:22:40;114.70;;;48.55;;
27580;SDS011;63557;52.302;7.964;2023-12-07T08:27:41;125.35;;;49.33;;
27580;SDS011;63557;52.302;7.964;2023-12-07T08:32:41;123.97;;;49.40;;
27580;SDS011;63557;52.302;7.964;2023-12-07T08:37:41;113.30;;;47.03;;
27580;SDS011;63557;52.302;7.964;2023-12-07T08:42:45;113.83;;;41.80;;
27580;SDS011;63557;52.302;7.964;2023-12-07T08:47:46;103.70;;;41.95;;
27580;SDS011;63557;52.302;7.964;2023-12-07T08:52:46;96.38;;;40.03;;
27580;SDS011;63557;52.302;7.964;2023-12-07T08:57:47;100.93;;;38.90;;
27580;SDS011;63557;52.302;7.964;2023-12-07T09:02:47;101.05;;;39.55;;
27580;SDS011;63557;52.302;7.964;2023-12-07T09:07:47;103.50;;;40.93;;
27580;SDS011;63557;52.302;7.964;2023-12-07T09:12:48;95.78;;;37.40;;
27580;SDS011;63557;52.302;7.964;2023-12-07T09:17:48;105.30;;;41.25;;
27580;SDS011;63557;52.302;7.964;2023-12-07T09:22:49;111.30;;;42.37;;
27580;SDS011;63557;52.302;7.964;2023-12-07T09:27:49;113.20;;;38.17;;
27580;SDS011;63557;52.302;7.964;2023-12-07T09:32:51;126.25;;;39.13;;
27580;SDS011;63557;52.302;7.964;2023-12-07T09:37:51;115.90;;;41.50;;
27580;SDS011;63557;52.302;7.964;2023-12-07T09:42:52;115.78;;;42.45;;
27580;SDS011;63557;52.302;7.964;2023-12-07T09:47:53;120.40;;;43.50;;
27580;SDS011;63557;52.302;7.964;2023-12-07T09:52:54;128.25;;;43.50;;
27580;SDS011;63557;52.302;7.964;2023-12-07T09:57:56;138.20;;;45.72;;
27580;SDS011;63557;52.302;7.964;2023-12-07T10:02:58;129.50;;;43.80;;
27580;SDS011;63557;52.302;7.964;2023-12-07T10:07:58;111.50;;;38.90;;
27580;SDS011;63557;52.302;7.964;2023-12-07T10:12:59;91.28;;;36.95;;
27580;SDS011;63557;52.302;7.964;2023-12-07T10:17:59;102.22;;;34.95;;
27580;SDS011;63557;52.302;7.964;2023-12-07T10:23:01;76.85;;;31.00;;
27580;SDS011;63557;52.302;7.964;2023-12-07T10:28:03;81.22;;;31.50;;
27580;SDS011;63557;52.302;7.964;2023-12-07T10:33:11;85.00;;;33.65;;
27580;SDS011;63557;52.302;7.964;2023-12-07T10:38:13;92.40;;;36.10;;
27580;SDS011;63557;52.302;7.964;2023-12-07T10:43:13;89.00;;;34.75;;
27580;SDS011;63557;52.302;7.964;2023-12-07T10:48:15;81.95;;;35.63;;
27580;SDS011;63557;52.302;7.964;2023-12-07T10:58:17;74.10;;;32.67;;
27580;SDS011;63557;52.302;7.964;2023-12-07T11:03:18;72.85;;;30.85;;
27580;SDS011;63557;52.302;7.964;2023-12-07T11:08:55;73.30;;;32.15;;
27580;SDS011;63557;52.302;7.964;2023-12-07T11:13:49;72.57;;;30.48;;
27580;SDS011;63557;52.302;7.964;2023-12-07T11:18:53;81.93;;;31.23;;
27580;SDS011;63557;52.302;7.964;2023-12-07T11:23:54;77.35;;;32.28;;
27580;SDS011;63557;52.302;7.964;2023-12-07T11:28:54;76.95;;;31.85;;
27580;SDS011;63557;52.302;7.964;2023-12-07T11:33:55;76.75;;;31.92;;
27580;SDS011;63557;52.302;7.964;2023-12-07T11:44:06;76.53;;;30.10;;
27580;SDS011;63557;52.302;7.964;2023-12-07T11:49:07;86.87;;;34.70;;
27580;SDS011;63557;52.302;7.964;2023-12-07T11:54:10;92.72;;;33.72;;
27580;SDS011;63557;52.302;7.964;2023-12-07T11:59:11;88.53;;;34.42;;
27580;SDS011;63557;52.302;7.964;2023-12-07T12:04:12;80.07;;;33.20;;
27580;SDS011;63557;52.302;7.964;2023-12-07T12:09:13;84.97;;;32.47;;
27580;SDS011;63557;52.302;7.964;2023-12-07T12:14:17;83.10;;;33.57;;
27580;SDS011;63557;52.302;7.964;2023-12-07T12:19:18;96.22;;;36.10;;
27580;SDS011;63557;52.302;7.964;2023-12-07T12:24:18;90.30;;;34.15;;
27580;SDS011;63557;52.302;7.964;2023-12-07T12:29:19;88.00;;;34.95;;
27580;SDS011;63557;52.302;7.964;2023-12-07T12:34:23;87.80;;;35.03;;
27580;SDS011;63557;52.302;7.964;2023-12-07T12:39:30;87.70;;;35.08;;
27580;SDS011;63557;52.302;7.964;2023-12-07T12:44:30;87.47;;;36.17;;
27580;SDS011;63557;52.302;7.964;2023-12-07T12:49:34;80.40;;;35.20;;
27580;SDS011;63557;52.302;7.964;2023-12-07T12:54:35;77.75;;;33.10;;
27580;SDS011;63557;52.302;7.964;2023-12-07T12:59:35;86.75;;;35.13;;
27580;SDS011;63557;52.302;7.964;2023-12-07T13:04:36;74.53;;;34.97;;
27580;SDS011;63557;52.302;7.964;2023-12-07T13:09:37;69.05;;;33.35;;
27580;SDS011;63557;52.302;7.964;2023-12-07T13:14:37;75.88;;;34.63;;
27580;SDS011;63557;52.302;7.964;2023-12-07T13:19:39;75.80;;;33.42;;
27580;SDS011;63557;52.302;7.964;2023-12-07T13:24:40;74.50;;;34.90;;
27580;SDS011;63557;52.302;7.964;2023-12-07T13:29:40;79.13;;;35.77;;
27580;SDS011;63557;52.302;7.964;2023-12-07T13:34:41;72.40;;;33.25;;
27580;SDS011;63557;52.302;7.964;2023-12-07T13:39:41;82.17;;;36.50;;
27580;SDS011;63557;52.302;7.964;2023-12-07T13:44:43;76.75;;;34.08;;
27580;SDS011;63557;52.302;7.964;2023-12-07T13:49:43;77.80;;;35.55;;
27580;SDS011;63557;52.302;7.964;2023-12-07T13:54:43;85.13;;;36.35;;
27580;SDS011;63557;52.302;7.964;2023-12-07T13:59:44;85.25;;;37.33;;
27580;SDS011;63557;52.302;7.964;2023-12-07T14:04:45;88.25;;;35.67;;
27580;SDS011;63557;52.302;7.964;2023-12-07T14:09:46;87.03;;;36.80;;
27580;SDS011;63557;52.302;7.964;2023-12-07T14:14:47;78.82;;;35.38;;
27580;SDS011;63557;52.302;7.964;2023-12-07T14:19:48;87.78;;;37.10;;
27580;SDS011;63557;52.302;7.964;2023-12-07T14:24:51;94.03;;;38.92;;
27580;SDS011;63557;52.302;7.964;2023-12-07T14:29:52;87.80;;;37.28;;
27580;SDS011;63557;52.302;7.964;2023-12-07T14:34:53;83.57;;;36.80;;
27580;SDS011;63557;52.302;7.964;2023-12-07T14:39:53;90.93;;;36.30;;
27580;SDS011;63557;52.302;7.964;2023-12-07T14:44:53;87.03;;;36.20;;
27580;SDS011;63557;52.302;7.964;2023-12-07T14:49:54;97.32;;;35.95;;
27580;SDS011;63557;52.302;7.964;2023-12-07T14:54:54;82.30;;;36.23;;
27580;SDS011;63557;52.302;7.964;2023-12-07T14:59:55;91.40;;;38.17;;
27580;SDS011;63557;52.302;7.964;2023-12-07T15:04:58;103.35;;;43.17;;
27580;SDS011;63557;52.302;7.964;2023-12-07T15:09:58;98.72;;;41.20;;
27580;SDS011;63557;52.302;7.964;2023-12-07T15:14:58;101.17;;;42.50;;
27580;SDS011;63557;52.302;7.964;2023-12-07T15:19:59;106.10;;;41.00;;
27580;SDS011;63557;52.302;7.964;2023-12-07T15:24:59;107.43;;;40.63;;
27580;SDS011;63557;52.302;7.964;2023-12-07T15:30:00;126.53;;;47.70;;
27580;SDS011;63557;52.302;7.964;2023-12-07T15:35:00;118.25;;;42.10;;
27580;SDS011;63557;52.302;7.964;2023-12-07T15:40:00;129.10;;;44.33;;
27580;SDS011;63557;52.302;7.964;2023-12-07T15:45:01;124.18;;;42.00;;
27580;SDS011;63557;52.302;7.964;2023-12-07T15:50:01;132.35;;;45.17;;
27580;SDS011;63557;52.302;7.964;2023-12-07T15:55:02;146.77;;;47.08;;
27580;SDS011;63557;52.302;7.964;2023-12-07T16:00:02;124.32;;;44.35;;
27580;SDS011;63557;52.302;7.964;2023-12-07T16:05:05;148.60;;;48.10;;
27580;SDS011;63557;52.302;7.964;2023-12-07T16:10:08;182.10;;;47.90;;
27580;SDS011;63557;52.302;7.964;2023-12-07T16:15:09;176.93;;;49.28;;
27580;SDS011;63557;52.302;7.964;2023-12-07T16:20:10;201.40;;;51.95;;
27580;SDS011;63557;52.302;7.964;2023-12-07T16:25:15;195.60;;;54.65;;
27580;SDS011;63557;52.302;7.964;2023-12-07T16:30:15;193.98;;;53.40;;
27580;SDS011;63557;52.302;7.964;2023-12-07T16:35:17;219.20;;;55.10;;
27580;SDS011;63557;52.302;7.964;2023-12-07T16:40:17;217.82;;;53.95;;
27580;SDS011;63557;52.302;7.964;2023-12-07T16:45:18;199.93;;;54.22;;
27580;SDS011;63557;52.302;7.964;2023-12-07T16:50:19;187.05;;;56.33;;
27580;SDS011;63557;52.302;7.964;2023-12-07T16:55:19;183.57;;;54.40;;
27580;SDS011;63557;52.302;7.964;2023-12-07T17:00:19;164.77;;;53.47;;
27580;SDS011;63557;52.302;7.964;2023-12-07T17:05:21;161.43;;;51.53;;
27580;SDS011;63557;52.302;7.964;2023-12-07T17:10:21;159.70;;;49.73;;
27580;SDS011;63557;52.302;7.964;2023-12-07T17:15:21;151.82;;;48.60;;
27580;SDS011;63557;52.302;7.964;2023-12-07T17:20:22;149.45;;;49.53;;
27580;SDS011;63557;52.302;7.964;2023-12-07T17:25:22;155.27;;;55.55;;
27580;SDS011;63557;52.302;7.964;2023-12-07T17:30:22;153.90;;;49.03;;
27580;SDS011;63557;52.302;7.964;2023-12-07T17:35:23;138.05;;;48.30;;
27580;SDS011;63557;52.302;7.964;2023-12-07T17:40:24;129.23;;;46.17;;
27580;SDS011;63557;52.302;7.964;2023-12-07T17:45:24;131.50;;;49.00;;
27580;SDS011;63557;52.302;7.964;2023-12-07T17:50:25;130.93;;;46.83;;
27580;SDS011;63557;52.302;7.964;2023-12-07T17:55:25;132.05;;;48.53;;
27580;SDS011;63557;52.302;7.964;2023-12-07T18:00:26;130.55;;;47.58;;
27580;SDS011;63557;52.302;7.964;2023-12-07T18:05:26;129.52;;;49.30;;
27580;SDS011;63557;52.302;7.964;2023-12-07T18:10:26;127.75;;;48.20;;
27580;SDS011;63557;52.302;7.964;2023-12-07T18:15:27;130.20;;;49.80;;
27580;SDS011;63557;52.302;7.964;2023-12-07T18:20:27;123.30;;;48.00;;
27580;SDS011;63557;52.302;7.964;2023-12-07T18:25:28;138.70;;;51.95;;
27580;SDS011;63557;52.302;7.964;2023-12-07T18:30:28;126.57;;;50.05;;
27580;SDS011;63557;52.302;7.964;2023-12-07T18:35:29;116.05;;;43.50;;
27580;SDS011;63557;52.302;7.964;2023-12-07T18:40:29;115.20;;;47.17;;
27580;SDS011;63557;52.302;7.964;2023-12-07T18:45:29;132.25;;;49.13;;
27580;SDS011;63557;52.302;7.964;2023-12-07T18:50:30;123.65;;;49.47;;
27580;SDS011;63557;52.302;7.964;2023-12-07T18:55:30;113.80;;;43.13;;
27580;SDS011;63557;52.302;7.964;2023-12-07T19:00:31;116.13;;;44.65;;
27580;SDS011;63557;52.302;7.964;2023-12-07T19:05:33;97.40;;;39.95;;
27580;SDS011;63557;52.302;7.964;2023-12-07T19:10:33;90.85;;;37.22;;
27580;SDS011;63557;52.302;7.964;2023-12-07T19:15:33;77.80;;;34.75;;
27580;SDS011;63557;52.302;7.964;2023-12-07T19:20:34;75.97;;;33.03;;
27580;SDS011;63557;52.302;7.964;2023-12-07T19:25:34;66.13;;;29.27;;
27580;SDS011;63557;52.302;7.964;2023-12-07T19:30:35;70.55;;;31.20;;
27580;SDS011;63557;52.302;7.964;2023-12-07T19:35:35;71.72;;;35.08;;
27580;SDS011;63557;52.302;7.964;2023-12-07T19:40:35;60.92;;;29.30;;
27580;SDS011;63557;52.302;7.964;2023-12-07T19:45:36;59.30;;;29.75;;
27580;SDS011;63557;52.302;7.964;2023-12-07T19:50:37;66.30;;;32.03;;
27580;SDS011;63557;52.302;7.964;2023-12-07T19:55:37;55.40;;;28.73;;
27580;SDS011;63557;52.302;7.964;2023-12-07T20:00:38;63.47;;;28.60;;
27580;SDS011;63557;52.302;7.964;2023-12-07T20:05:38;58.72;;;28.95;;
27580;SDS011;63557;52.302;7.964;2023-12-07T20:10:39;57.13;;;26.67;;
27580;SDS011;63557;52.302;7.964;2023-12-07T20:15:39;60.55;;;27.23;;
27580;SDS011;63557;52.302;7.964;2023-12-07T20:20:40;59.70;;;30.05;;
27580;SDS011;63557;52.302;7.964;2023-12-07T20:25:42;58.00;;;29.90;;
27580;SDS011;63557;52.302;7.964;2023-12-07T20:30:42;58.83;;;28.15;;
27580;SDS011;63557;52.302;7.964;2023-12-07T20:35:43;59.60;;;28.17;;
27580;SDS011;63557;52.302;7.964;2023-12-07T20:40:43;54.70;;;27.58;;
27580;SDS011;63557;52.302;7.964;2023-12-07T20:45:43;65.63;;;30.55;;
27580;SDS011;63557;52.302;7.964;2023-12-07T20:50:44;71.47;;;32.30;;
27580;SDS011;63557;52.302;7.964;2023-12-07T20:55:44;79.43;;;30.85;;
27580;SDS011;63557;52.302;7.964;2023-12-07T21:00:44;63.20;;;30.08;;
27580;SDS011;63557;52.302;7.964;2023-12-07T21:05:45;69.10;;;29.20;;
27580;SDS011;63557;52.302;7.964;2023-12-07T21:10:45;70.72;;;31.63;;
27580;SDS011;63557;52.302;7.964;2023-12-07T21:15:46;67.47;;;30.77;;
27580;SDS011;63557;52.302;7.964;2023-12-07T21:20:46;75.45;;;32.17;;
27580;SDS011;63557;52.302;7.964;2023-12-07T21:25:46;68.55;;;31.35;;
27580;SDS011;63557;52.302;7.964;2023-12-07T21:30:47;71.13;;;32.97;;
27580;SDS011;63557;52.302;7.964;2023-12-07T21:35:47;73.25;;;32.92;;
27580;SDS011;63557;52.302;7.964;2023-12-07T21:40:47;73.82;;;31.67;;
27580;SDS011;63557;52.302;7.964;2023-12-07T21:45:48;67.10;;;31.77;;
27580;SDS011;63557;52.302;7.964;2023-12-07T21:50:48;70.82;;;32.83;;
27580;SDS011;63557;52.302;7.964;2023-12-07T21:55:49;67.85;;;32.40;;
27580;SDS011;63557;52.302;7.964;2023-12-07T22:00:49;69.50;;;30.73;;
27580;SDS011;63557;52.302;7.964;2023-12-07T22:05:49;66.45;;;31.65;;
27580;SDS011;63557;52.302;7.964;2023-12-07T22:10:50;69.10;;;33.95;;
27580;SDS011;63557;52.302;7.964;2023-12-07T22:15:50;74.93;;;33.00;;
27580;SDS011;63557;52.302;7.964;2023-12-07T22:20:51;70.50;;;30.83;;
27580;SDS011;63557;52.302;7.964;2023-12-07T22:25:51;69.60;;;30.27;;
27580;SDS011;63557;52.302;7.964;2023-12-07T22:30:52;69.20;;;32.20;;
27580;SDS011;63557;52.302;7.964;2023-12-07T22:35:52;70.22;;;31.65;;
27580;SDS011;63557;52.302;7.964;2023-12-07T22:40:53;76.40;;;33.75;;
27580;SDS011;63557;52.302;7.964;2023-12-07T22:45:53;65.87;;;32.07;;
27580;SDS011;63557;52.302;7.964;2023-12-07T22:50:53;72.10;;;32.95;;
27580;SDS011;63557;52.302;7.964;2023-12-07T22:55:54;74.70;;;33.97;;
27580;SDS011;63557;52.302;7.964;2023-12-07T23:00:54;70.03;;;32.78;;
27580;SDS011;63557;52.302;7.964;2023-12-07T23:05:55;69.20;;;34.17;;
27580;SDS011;63557;52.302;7.964;2023-12-07T23:10:55;65.03;;;32.13;;
27580;SDS011;63557;52.302;7.964;2023-12-07T23:15:55;66.75;;;33.55;;
27580;SDS011;63557;52.302;7.964;2023-12-07T23:20:56;71.45;;;33.20;;
27580;SDS011;63557;52.302;7.964;2023-12-07T23:25:56;73.15;;;34.90;;
27580;SDS011;63557;52.302;7.964;2023-12-07T23:30:57;67.57;;;33.90;;
27580;SDS011;63557;52.302;7.964;2023-12-07T23:35:57;71.03;;;32.10;;
27580;SDS011;63557;52.302;7.964;2023-12-07T23:40:58;64.05;;;30.90;;
27580;SDS011;63557;52.302;7.964;2023-12-07T23:45:58;61.50;;;29.67;;
27580;SDS011;63557;52.302;7.964;2023-12-07T23:50:58;57.53;;;30.08;;
27580;SDS011;63557;52.302;7.964;2023-12-07T23:55:59;65.55;;;30.75;;
